sensor_id;sensor_type;location;lat;lon;timestamp;temperature;humidity
58865;DHT22;45702;52.982;6.658;2023-05-19T00:01:31;8.50;99.90
58865;DHT22;45702;52.982;6.658;2023-05-19T00:03:58;8.40;99.90
58865;DHT22;45702;52.982;6.658;2023-05-19T00:06:29;8.40;99.90
58865;DHT22;45702;52.982;6.658;2023-05-19T00:09:02;8.40;99.90
58865;DHT22;45702;52.982;6.658;2023-05-19T00:11:29;8.40;99.90
58865;DHT22;45702;52.982;6.658;2023-05-19T00:13:57;8.40;99.90
58865;DHT22;45702;52.982;6.658;2023-05-19T00:16:24;8.40;99.90
58865;DHT22;45702;52.982;6.658;2023-05-19T00:18:50;8.40;99.90
58865;DHT22;45702;52.982;6.658;2023-05-19T00:21:18;8.40;99.90
58865;DHT22;45702;52.982;6.658;2023-05-19T00:23:43;8.30;99.90
58865;DHT22;45702;52.982;6.658;2023-05-19T00:26:10;8.30;99.90
58865;DHT22;45702;52.982;6.658;2023-05-19T00:28:35;8.30;99.90
58865;DHT22;45702;52.982;6.658;2023-05-19T00:31:05;8.30;99.90
58865;DHT22;45702;52.982;6.658;2023-05-19T00:33:31;8.30;99.90
58865;DHT22;45702;52.982;6.658;2023-05-19T00:36:01;8.30;99.90
58865;DHT22;45702;52.982;6.658;2023-05-19T00:38:32;8.30;99.90
58865;DHT22;45702;52.982;6.658;2023-05-19T00:41:02;8.30;99.90
58865;DHT22;45702;52.982;6.658;2023-05-19T00:43:28;8.30;99.90
58865;DHT22;45702;52.982;6.658;2023-05-19T00:45:59;8.30;99.90
58865;DHT22;45702;52.982;6.658;2023-05-19T00:48:25;8.20;99.90
58865;DHT22;45702;52.982;6.658;2023-05-19T00:50:53;8.20;99.90
58865;DHT22;45702;52.982;6.658;2023-05-19T00:53:20;8.20;99.90
58865;DHT22;45702;52.982;6.658;2023-05-19T00:55:47;8.20;99.90
58865;DHT22;45702;52.982;6.658;2023-05-19T00:58:13;8.10;99.90
58865;DHT22;45702;52.982;6.658;2023-05-19T01:00:40;8.20;99.90
58865;DHT22;45702;52.982;6.658;2023-05-19T01:03:07;8.10;99.90
58865;DHT22;45702;52.982;6.658;2023-05-19T01:05:39;8.10;99.90
58865;DHT22;45702;52.982;6.658;2023-05-19T01:08:18;8.10;99.90
58865;DHT22;45702;52.982;6.658;2023-05-19T01:10:44;8.10;99.90
58865;DHT22;45702;52.982;6.658;2023-05-19T01:13:10;8.10;99.90
58865;DHT22;45702;52.982;6.658;2023-05-19T01:15:52;8.00;99.90
58865;DHT22;45702;52.982;6.658;2023-05-19T01:18:59;8.00;99.90
58865;DHT22;45702;52.982;6.658;2023-05-19T01:21:39;8.00;99.90
58865;DHT22;45702;52.982;6.658;2023-05-19T01:24:44;8.00;99.90
58865;DHT22;45702;52.982;6.658;2023-05-19T01:32:48;7.90;99.90
58865;DHT22;45702;52.982;6.658;2023-05-19T01:35:17;7.80;99.90
58865;DHT22;45702;52.982;6.658;2023-05-19T01:37:42;7.80;99.90
58865;DHT22;45702;52.982;6.658;2023-05-19T01:40:10;7.80;99.90
58865;DHT22;45702;52.982;6.658;2023-05-19T01:42:37;7.80;99.90
58865;DHT22;45702;52.982;6.658;2023-05-19T01:45:05;7.80;99.90
58865;DHT22;45702;52.982;6.658;2023-05-19T01:47:35;7.80;99.90
58865;DHT22;45702;52.982;6.658;2023-05-19T01:50:05;7.70;99.90
58865;DHT22;45702;52.982;6.658;2023-05-19T01:52:31;7.70;99.90
58865;DHT22;45702;52.982;6.658;2023-05-19T01:54:57;7.70;99.90
58865;DHT22;45702;52.982;6.658;2023-05-19T01:57:39;7.70;99.90
58865;DHT22;45702;52.982;6.658;2023-05-19T02:05:37;7.70;99.90
58865;DHT22;45702;52.982;6.658;2023-05-19T02:08:13;7.70;99.90
58865;DHT22;45702;52.982;6.658;2023-05-19T02:10:44;7.70;99.90
58865;DHT22;45702;52.982;6.658;2023-05-19T02:13:13;7.70;99.90
58865;DHT22;45702;52.982;6.658;2023-05-19T02:15:44;7.70;99.90
58865;DHT22;45702;52.982;6.658;2023-05-19T02:18:11;7.70;99.90
58865;DHT22;45702;52.982;6.658;2023-05-19T02:20:39;7.70;99.90
58865;DHT22;45702;52.982;6.658;2023-05-19T02:23:05;7.70;99.90
58865;DHT22;45702;52.982;6.658;2023-05-19T02:25:31;7.70;99.90
58865;DHT22;45702;52.982;6.658;2023-05-19T02:27:57;7.70;99.90
58865;DHT22;45702;52.982;6.658;2023-05-19T02:30:23;7.70;99.90
58865;DHT22;45702;52.982;6.658;2023-05-19T02:32:49;7.70;99.90
58865;DHT22;45702;52.982;6.658;2023-05-19T02:35:15;7.60;99.90
58865;DHT22;45702;52.982;6.658;2023-05-19T02:37:41;7.60;99.90
58865;DHT22;45702;52.982;6.658;2023-05-19T02:40:07;7.60;99.90
58865;DHT22;45702;52.982;6.658;2023-05-19T02:42:33;7.60;99.90
58865;DHT22;45702;52.982;6.658;2023-05-19T02:44:59;7.60;99.90
58865;DHT22;45702;52.982;6.658;2023-05-19T02:47:25;7.60;99.90
58865;DHT22;45702;52.982;6.658;2023-05-19T02:49:50;7.60;99.90
58865;DHT22;45702;52.982;6.658;2023-05-19T02:52:16;7.60;99.90
58865;DHT22;45702;52.982;6.658;2023-05-19T02:54:42;7.50;99.90
58865;DHT22;45702;52.982;6.658;2023-05-19T02:57:08;7.50;99.90
58865;DHT22;45702;52.982;6.658;2023-05-19T02:59:33;7.50;99.90
58865;DHT22;45702;52.982;6.658;2023-05-19T03:02:00;7.40;99.90
58865;DHT22;45702;52.982;6.658;2023-05-19T03:04:27;7.40;99.90
58865;DHT22;45702;52.982;6.658;2023-05-19T03:06:52;7.40;99.90
58865;DHT22;45702;52.982;6.658;2023-05-19T03:09:19;7.30;99.90
58865;DHT22;45702;52.982;6.658;2023-05-19T03:11:45;7.30;99.90
58865;DHT22;45702;52.982;6.658;2023-05-19T03:14:11;7.30;99.90
58865;DHT22;45702;52.982;6.658;2023-05-19T03:16:38;7.30;99.90
58865;DHT22;45702;52.982;6.658;2023-05-19T03:19:05;7.30;99.90
58865;DHT22;45702;52.982;6.658;2023-05-19T03:21:31;7.20;99.90
58865;DHT22;45702;52.982;6.658;2023-05-19T03:23:59;7.20;99.90
58865;DHT22;45702;52.982;6.658;2023-05-19T03:26:25;7.20;99.90
58865;DHT22;45702;52.982;6.658;2023-05-19T03:28:51;7.10;99.90
58865;DHT22;45702;52.982;6.658;2023-05-19T03:31:17;7.10;99.90
58865;DHT22;45702;52.982;6.658;2023-05-19T03:33:42;7.10;99.90
58865;DHT22;45702;52.982;6.658;2023-05-19T03:36:08;7.00;99.90
58865;DHT22;45702;52.982;6.658;2023-05-19T03:38:34;7.00;99.90
58865;DHT22;45702;52.982;6.658;2023-05-19T03:41:00;7.00;99.90
58865;DHT22;45702;52.982;6.658;2023-05-19T03:43:25;7.00;99.90
58865;DHT22;45702;52.982;6.658;2023-05-19T03:45:51;7.00;99.90
58865;DHT22;45702;52.982;6.658;2023-05-19T03:48:18;7.00;99.90
58865;DHT22;45702;52.982;6.658;2023-05-19T03:50:43;7.00;99.90
58865;DHT22;45702;52.982;6.658;2023-05-19T03:53:09;7.00;99.90
58865;DHT22;45702;52.982;6.658;2023-05-19T03:55:35;7.00;99.90
58865;DHT22;45702;52.982;6.658;2023-05-19T03:58:02;6.90;99.90
58865;DHT22;45702;52.982;6.658;2023-05-19T04:00:28;6.90;99.90
58865;DHT22;45702;52.982;6.658;2023-05-19T04:02:53;6.90;99.90
58865;DHT22;45702;52.982;6.658;2023-05-19T04:05:19;6.90;99.90
58865;DHT22;45702;52.982;6.658;2023-05-19T04:07:45;6.90;99.90
58865;DHT22;45702;52.982;6.658;2023-05-19T04:10:11;6.90;99.90
58865;DHT22;45702;52.982;6.658;2023-05-19T04:12:37;6.90;99.90
58865;DHT22;45702;52.982;6.658;2023-05-19T04:15:03;6.90;99.90
58865;DHT22;45702;52.982;6.658;2023-05-19T04:17:30;6.90;99.90
58865;DHT22;45702;52.982;6.658;2023-05-19T04:19:56;6.90;99.90
58865;DHT22;45702;52.982;6.658;2023-05-19T04:22:22;7.00;99.90
58865;DHT22;45702;52.982;6.658;2023-05-19T04:24:48;7.00;99.90
58865;DHT22;45702;52.982;6.658;2023-05-19T04:27:14;7.00;99.90
58865;DHT22;45702;52.982;6.658;2023-05-19T04:29:42;7.10;99.90
58865;DHT22;45702;52.982;6.658;2023-05-19T04:32:08;7.10;99.90
58865;DHT22;45702;52.982;6.658;2023-05-19T04:34:35;7.20;99.90
58865;DHT22;45702;52.982;6.658;2023-05-19T04:37:05;7.30;99.90
58865;DHT22;45702;52.982;6.658;2023-05-19T04:39:31;7.40;99.90
58865;DHT22;45702;52.982;6.658;2023-05-19T04:41:57;7.50;99.90
58865;DHT22;45702;52.982;6.658;2023-05-19T04:44:24;7.50;99.90
58865;DHT22;45702;52.982;6.658;2023-05-19T04:46:51;7.60;99.90
58865;DHT22;45702;52.982;6.658;2023-05-19T04:49:18;7.70;99.90
58865;DHT22;45702;52.982;6.658;2023-05-19T04:51:44;7.80;99.90
58865;DHT22;45702;52.982;6.658;2023-05-19T04:54:14;7.90;99.90
58865;DHT22;45702;52.982;6.658;2023-05-19T04:56:40;7.90;99.90
58865;DHT22;45702;52.982;6.658;2023-05-19T04:59:06;8.00;99.90
58865;DHT22;45702;52.982;6.658;2023-05-19T05:01:34;8.10;99.90
58865;DHT22;45702;52.982;6.658;2023-05-19T05:04:05;8.20;99.90
58865;DHT22;45702;52.982;6.658;2023-05-19T05:06:31;8.20;99.90
58865;DHT22;45702;52.982;6.658;2023-05-19T05:08:56;8.30;99.90
58865;DHT22;45702;52.982;6.658;2023-05-19T05:11:23;8.40;99.90
58865;DHT22;45702;52.982;6.658;2023-05-19T05:13:49;8.40;99.90
58865;DHT22;45702;52.982;6.658;2023-05-19T05:16:15;8.50;99.90
58865;DHT22;45702;52.982;6.658;2023-05-19T05:18:41;8.60;99.90
58865;DHT22;45702;52.982;6.658;2023-05-19T05:21:07;8.70;99.90
58865;DHT22;45702;52.982;6.658;2023-05-19T05:23:33;8.80;99.90
58865;DHT22;45702;52.982;6.658;2023-05-19T05:26:08;8.80;99.90
58865;DHT22;45702;52.982;6.658;2023-05-19T05:28:34;8.90;99.90
58865;DHT22;45702;52.982;6.658;2023-05-19T05:31:00;9.00;99.90
58865;DHT22;45702;52.982;6.658;2023-05-19T05:33:26;9.10;99.90
58865;DHT22;45702;52.982;6.658;2023-05-19T05:35:51;9.20;99.90
58865;DHT22;45702;52.982;6.658;2023-05-19T05:38:17;9.30;99.90
58865;DHT22;45702;52.982;6.658;2023-05-19T05:40:43;9.30;99.90
58865;DHT22;45702;52.982;6.658;2023-05-19T05:43:08;9.40;99.90
58865;DHT22;45702;52.982;6.658;2023-05-19T05:45:34;9.50;99.90
58865;DHT22;45702;52.982;6.658;2023-05-19T05:48:00;9.50;99.90
58865;DHT22;45702;52.982;6.658;2023-05-19T05:50:26;9.60;99.90
58865;DHT22;45702;52.982;6.658;2023-05-19T05:52:52;9.70;99.90
58865;DHT22;45702;52.982;6.658;2023-05-19T05:55:20;9.80;99.90
58865;DHT22;45702;52.982;6.658;2023-05-19T05:57:48;9.80;99.90
58865;DHT22;45702;52.982;6.658;2023-05-19T06:00:15;9.90;99.90
58865;DHT22;45702;52.982;6.658;2023-05-19T06:02:44;10.00;99.90
58865;DHT22;45702;52.982;6.658;2023-05-19T06:05:12;10.10;99.90
58865;DHT22;45702;52.982;6.658;2023-05-19T06:07:39;10.20;99.90
58865;DHT22;45702;52.982;6.658;2023-05-19T06:10:05;10.20;99.90
58865;DHT22;45702;52.982;6.658;2023-05-19T06:12:32;10.30;99.90
58865;DHT22;45702;52.982;6.658;2023-05-19T06:14:58;10.40;99.90
58865;DHT22;45702;52.982;6.658;2023-05-19T06:17:24;10.50;99.90
58865;DHT22;45702;52.982;6.658;2023-05-19T06:19:50;10.50;99.90
58865;DHT22;45702;52.982;6.658;2023-05-19T06:22:16;10.60;99.90
58865;DHT22;45702;52.982;6.658;2023-05-19T06:24:42;10.70;99.90
58865;DHT22;45702;52.982;6.658;2023-05-19T06:27:07;10.70;99.90
58865;DHT22;45702;52.982;6.658;2023-05-19T06:29:33;10.80;99.90
58865;DHT22;45702;52.982;6.658;2023-05-19T06:31:59;10.90;99.90
58865;DHT22;45702;52.982;6.658;2023-05-19T06:34:24;10.90;99.90
58865;DHT22;45702;52.982;6.658;2023-05-19T06:36:51;11.00;99.90
58865;DHT22;45702;52.982;6.658;2023-05-19T06:39:17;11.10;99.90
58865;DHT22;45702;52.982;6.658;2023-05-19T06:41:42;11.10;99.90
58865;DHT22;45702;52.982;6.658;2023-05-19T06:44:08;11.20;99.90
58865;DHT22;45702;52.982;6.658;2023-05-19T06:46:34;11.20;99.90
58865;DHT22;45702;52.982;6.658;2023-05-19T06:49:00;11.30;99.90
58865;DHT22;45702;52.982;6.658;2023-05-19T06:51:26;11.30;99.90
58865;DHT22;45702;52.982;6.658;2023-05-19T06:53:51;11.40;99.90
58865;DHT22;45702;52.982;6.658;2023-05-19T06:56:17;11.50;99.90
58865;DHT22;45702;52.982;6.658;2023-05-19T06:58:44;11.50;99.90
58865;DHT22;45702;52.982;6.658;2023-05-19T07:01:10;11.70;99.90
58865;DHT22;45702;52.982;6.658;2023-05-19T07:03:36;11.70;99.90
58865;DHT22;45702;52.982;6.658;2023-05-19T07:06:01;11.80;99.90
58865;DHT22;45702;52.982;6.658;2023-05-19T07:08:27;11.80;99.90
58865;DHT22;45702;52.982;6.658;2023-05-19T07:10:53;11.90;99.90
58865;DHT22;45702;52.982;6.658;2023-05-19T07:13:20;12.00;99.90
58865;DHT22;45702;52.982;6.658;2023-05-19T07:15:46;12.00;99.90
58865;DHT22;45702;52.982;6.658;2023-05-19T07:18:14;12.10;99.90
58865;DHT22;45702;52.982;6.658;2023-05-19T07:20:40;12.20;99.90
58865;DHT22;45702;52.982;6.658;2023-05-19T07:23:05;12.30;99.70
58865;DHT22;45702;52.982;6.658;2023-05-19T07:25:31;12.30;99.10
58865;DHT22;45702;52.982;6.658;2023-05-19T07:27:58;12.40;98.50
58865;DHT22;45702;52.982;6.658;2023-05-19T07:30:26;12.50;97.80
58865;DHT22;45702;52.982;6.658;2023-05-19T07:32:52;12.60;97.30
58865;DHT22;45702;52.982;6.658;2023-05-19T07:35:18;12.60;96.90
58865;DHT22;45702;52.982;6.658;2023-05-19T07:37:44;12.70;96.10
58865;DHT22;45702;52.982;6.658;2023-05-19T07:40:10;12.80;94.80
58865;DHT22;45702;52.982;6.658;2023-05-19T07:42:36;12.90;94.40
58865;DHT22;45702;52.982;6.658;2023-05-19T07:45:02;12.90;93.90
58865;DHT22;45702;52.982;6.658;2023-05-19T07:47:28;13.00;93.60
58865;DHT22;45702;52.982;6.658;2023-05-19T07:49:54;13.00;93.20
58865;DHT22;45702;52.982;6.658;2023-05-19T07:52:20;13.10;92.80
58865;DHT22;45702;52.982;6.658;2023-05-19T07:54:46;13.20;92.30
58865;DHT22;45702;52.982;6.658;2023-05-19T07:57:11;13.20;91.50
58865;DHT22;45702;52.982;6.658;2023-05-19T07:59:39;13.30;91.30
58865;DHT22;45702;52.982;6.658;2023-05-19T08:02:05;13.40;90.60
58865;DHT22;45702;52.982;6.658;2023-05-19T08:04:31;13.40;90.40
58865;DHT22;45702;52.982;6.658;2023-05-19T08:06:57;13.50;90.20
58865;DHT22;45702;52.982;6.658;2023-05-19T08:09:23;13.60;89.90
58865;DHT22;45702;52.982;6.658;2023-05-19T08:11:49;13.60;89.40
58865;DHT22;45702;52.982;6.658;2023-05-19T08:14:14;13.70;89.30
58865;DHT22;45702;52.982;6.658;2023-05-19T08:16:40;13.80;87.30
58865;DHT22;45702;52.982;6.658;2023-05-19T08:19:07;13.80;85.80
58865;DHT22;45702;52.982;6.658;2023-05-19T08:21:33;13.90;85.00
58865;DHT22;45702;52.982;6.658;2023-05-19T08:24:00;14.00;84.30
58865;DHT22;45702;52.982;6.658;2023-05-19T08:26:26;14.00;83.80
58865;DHT22;45702;52.982;6.658;2023-05-19T08:28:52;14.10;82.40
58865;DHT22;45702;52.982;6.658;2023-05-19T08:31:18;14.10;81.30
58865;DHT22;45702;52.982;6.658;2023-05-19T08:33:44;14.20;80.90
58865;DHT22;45702;52.982;6.658;2023-05-19T08:36:10;14.30;80.50
58865;DHT22;45702;52.982;6.658;2023-05-19T08:38:36;14.40;79.50
58865;DHT22;45702;52.982;6.658;2023-05-19T08:41:02;14.40;79.70
58865;DHT22;45702;52.982;6.658;2023-05-19T08:43:28;14.50;78.50
58865;DHT22;45702;52.982;6.658;2023-05-19T08:45:53;14.60;77.90
58865;DHT22;45702;52.982;6.658;2023-05-19T08:48:20;14.70;75.30
58865;DHT22;45702;52.982;6.658;2023-05-19T08:53:26;14.90;73.90
58865;DHT22;45702;52.982;6.658;2023-05-19T08:56:02;15.00;71.80
58865;DHT22;45702;52.982;6.658;2023-05-19T08:58:30;15.00;71.40
58865;DHT22;45702;52.982;6.658;2023-05-19T09:00:56;15.10;70.50
58865;DHT22;45702;52.982;6.658;2023-05-19T09:03:24;15.20;70.20
58865;DHT22;45702;52.982;6.658;2023-05-19T09:05:53;15.30;70.70
58865;DHT22;45702;52.982;6.658;2023-05-19T09:08:19;15.40;69.50
58865;DHT22;45702;52.982;6.658;2023-05-19T09:10:45;15.50;69.30
58865;DHT22;45702;52.982;6.658;2023-05-19T09:13:10;15.60;68.50
58865;DHT22;45702;52.982;6.658;2023-05-19T09:15:38;15.70;67.60
58865;DHT22;45702;52.982;6.658;2023-05-19T09:18:11;15.80;69.40
58865;DHT22;45702;52.982;6.658;2023-05-19T09:20:44;16.00;67.80
58865;DHT22;45702;52.982;6.658;2023-05-19T09:23:17;16.10;67.90
58865;DHT22;45702;52.982;6.658;2023-05-19T09:25:49;16.20;69.10
58865;DHT22;45702;52.982;6.658;2023-05-19T09:28:30;16.30;68.20
58865;DHT22;45702;52.982;6.658;2023-05-19T09:31:04;16.50;67.10
58865;DHT22;45702;52.982;6.658;2023-05-19T09:33:33;16.60;65.90
58865;DHT22;45702;52.982;6.658;2023-05-19T09:36:00;16.70;64.90
58865;DHT22;45702;52.982;6.658;2023-05-19T09:38:27;16.70;64.10
58865;DHT22;45702;52.982;6.658;2023-05-19T09:41:14;16.70;62.80
58865;DHT22;45702;52.982;6.658;2023-05-19T09:43:45;16.80;62.70
58865;DHT22;45702;52.982;6.658;2023-05-19T09:46:29;16.80;61.40
58865;DHT22;45702;52.982;6.658;2023-05-19T09:49:36;16.90;60.70
58865;DHT22;45702;52.982;6.658;2023-05-19T09:52:20;16.90;62.00
58865;DHT22;45702;52.982;6.658;2023-05-19T09:55:29;17.00;62.80
58865;DHT22;45702;52.982;6.658;2023-05-19T09:58:00;17.00;61.70
58865;DHT22;45702;52.982;6.658;2023-05-19T10:00:28;17.10;61.00
58865;DHT22;45702;52.982;6.658;2023-05-19T10:02:55;17.20;64.00
58865;DHT22;45702;52.982;6.658;2023-05-19T10:05:22;17.30;62.30
58865;DHT22;45702;52.982;6.658;2023-05-19T10:07:50;17.50;61.00
58865;DHT22;45702;52.982;6.658;2023-05-19T10:10:17;17.50;59.60
58865;DHT22;45702;52.982;6.658;2023-05-19T10:12:46;17.50;60.40
58865;DHT22;45702;52.982;6.658;2023-05-19T10:15:17;17.60;60.70
58865;DHT22;45702;52.982;6.658;2023-05-19T10:17:44;17.70;58.60
58865;DHT22;45702;52.982;6.658;2023-05-19T10:20:14;17.70;58.40
58865;DHT22;45702;52.982;6.658;2023-05-19T10:22:41;17.60;57.10
58865;DHT22;45702;52.982;6.658;2023-05-19T10:25:08;17.60;57.00
58865;DHT22;45702;52.982;6.658;2023-05-19T10:27:55;17.60;57.40
58865;DHT22;45702;52.982;6.658;2023-05-19T10:30:28;17.60;57.20
58865;DHT22;45702;52.982;6.658;2023-05-19T10:32:54;17.70;58.90
58865;DHT22;45702;52.982;6.658;2023-05-19T10:35:53;17.80;58.90
58865;DHT22;45702;52.982;6.658;2023-05-19T10:41:17;17.80;56.50
58865;DHT22;45702;52.982;6.658;2023-05-19T10:46:55;17.70;58.60
58865;DHT22;45702;52.982;6.658;2023-05-19T10:49:21;17.90;58.30
58865;DHT22;45702;52.982;6.658;2023-05-19T10:51:47;18.00;58.80
58865;DHT22;45702;52.982;6.658;2023-05-19T10:54:14;18.10;58.50
58865;DHT22;45702;52.982;6.658;2023-05-19T10:56:43;18.10;57.10
58865;DHT22;45702;52.982;6.658;2023-05-19T10:59:32;18.20;56.80
58865;DHT22;45702;52.982;6.658;2023-05-19T11:02:06;18.10;57.00
58865;DHT22;45702;52.982;6.658;2023-05-19T11:04:52;18.10;57.40
58865;DHT22;45702;52.982;6.658;2023-05-19T11:07:22;18.20;57.50
58865;DHT22;45702;52.982;6.658;2023-05-19T11:09:52;18.30;57.40
58865;DHT22;45702;52.982;6.658;2023-05-19T11:12:22;18.30;58.00
58865;DHT22;45702;52.982;6.658;2023-05-19T11:14:51;18.30;57.70
58865;DHT22;45702;52.982;6.658;2023-05-19T11:17:18;18.40;57.70
58865;DHT22;45702;52.982;6.658;2023-05-19T11:20:07;18.50;57.50
58865;DHT22;45702;52.982;6.658;2023-05-19T11:22:35;18.50;56.20
58865;DHT22;45702;52.982;6.658;2023-05-19T11:25:02;18.50;55.70
58865;DHT22;45702;52.982;6.658;2023-05-19T11:27:33;18.40;55.50
58865;DHT22;45702;52.982;6.658;2023-05-19T11:30:08;18.50;55.70
58865;DHT22;45702;52.982;6.658;2023-05-19T11:32:40;18.50;56.10
58865;DHT22;45702;52.982;6.658;2023-05-19T11:35:08;18.60;57.00
58865;DHT22;45702;52.982;6.658;2023-05-19T11:37:34;18.60;57.20
58865;DHT22;45702;52.982;6.658;2023-05-19T11:40:02;18.60;56.70
58865;DHT22;45702;52.982;6.658;2023-05-19T11:42:31;18.70;56.70
58865;DHT22;45702;52.982;6.658;2023-05-19T11:44:56;18.80;56.20
58865;DHT22;45702;52.982;6.658;2023-05-19T11:47:22;18.90;56.20
58865;DHT22;45702;52.982;6.658;2023-05-19T11:49:48;19.00;55.80
58865;DHT22;45702;52.982;6.658;2023-05-19T11:52:16;19.10;56.00
58865;DHT22;45702;52.982;6.658;2023-05-19T11:54:46;19.10;56.00
58865;DHT22;45702;52.982;6.658;2023-05-19T11:57:22;19.10;56.10
58865;DHT22;45702;52.982;6.658;2023-05-19T12:00:48;19.10;56.00
58865;DHT22;45702;52.982;6.658;2023-05-19T12:03:23;19.10;55.30
58865;DHT22;45702;52.982;6.658;2023-05-19T12:05:56;19.10;55.10
58865;DHT22;45702;52.982;6.658;2023-05-19T12:08:25;19.00;54.50
58865;DHT22;45702;52.982;6.658;2023-05-19T12:10:52;19.00;54.80
58865;DHT22;45702;52.982;6.658;2023-05-19T12:13:18;19.10;56.00
58865;DHT22;45702;52.982;6.658;2023-05-19T12:15:44;19.10;55.50
58865;DHT22;45702;52.982;6.658;2023-05-19T12:18:10;19.20;54.80
58865;DHT22;45702;52.982;6.658;2023-05-19T12:20:35;19.10;53.90
58865;DHT22;45702;52.982;6.658;2023-05-19T12:23:02;19.10;54.10
58865;DHT22;45702;52.982;6.658;2023-05-19T12:25:29;19.20;54.20
58865;DHT22;45702;52.982;6.658;2023-05-19T12:27:59;19.30;53.00
58865;DHT22;45702;52.982;6.658;2023-05-19T12:30:27;19.30;53.70
58865;DHT22;45702;52.982;6.658;2023-05-19T12:32:54;19.40;53.70
58865;DHT22;45702;52.982;6.658;2023-05-19T12:35:36;19.50;54.60
58865;DHT22;45702;52.982;6.658;2023-05-19T12:38:08;19.60;55.80
58865;DHT22;45702;52.982;6.658;2023-05-19T12:40:34;19.70;55.00
58865;DHT22;45702;52.982;6.658;2023-05-19T12:43:00;19.70;53.40
58865;DHT22;45702;52.982;6.658;2023-05-19T12:45:26;19.70;52.70
58865;DHT22;45702;52.982;6.658;2023-05-19T12:47:52;19.70;52.80
58865;DHT22;45702;52.982;6.658;2023-05-19T12:50:18;19.70;52.80
58865;DHT22;45702;52.982;6.658;2023-05-19T12:52:48;19.70;52.90
58865;DHT22;45702;52.982;6.658;2023-05-19T12:55:17;19.70;53.20
58865;DHT22;45702;52.982;6.658;2023-05-19T12:57:50;19.70;53.60
58865;DHT22;45702;52.982;6.658;2023-05-19T13:00:20;19.80;54.10
58865;DHT22;45702;52.982;6.658;2023-05-19T13:03:06;20.00;54.10
58865;DHT22;45702;52.982;6.658;2023-05-19T13:05:34;20.10;53.40
58865;DHT22;45702;52.982;6.658;2023-05-19T13:08:12;20.20;53.30
58865;DHT22;45702;52.982;6.658;2023-05-19T13:10:39;20.30;52.40
58865;DHT22;45702;52.982;6.658;2023-05-19T13:13:06;20.20;52.50
58865;DHT22;45702;52.982;6.658;2023-05-19T13:15:33;20.10;52.30
58865;DHT22;45702;52.982;6.658;2023-05-19T13:18:01;20.10;52.70
58865;DHT22;45702;52.982;6.658;2023-05-19T13:20:27;20.20;51.70
58865;DHT22;45702;52.982;6.658;2023-05-19T13:22:53;20.20;51.20
58865;DHT22;45702;52.982;6.658;2023-05-19T13:25:19;20.20;50.80
58865;DHT22;45702;52.982;6.658;2023-05-19T13:27:46;20.20;50.30
58865;DHT22;45702;52.982;6.658;2023-05-19T13:30:12;20.20;50.60
58865;DHT22;45702;52.982;6.658;2023-05-19T13:32:38;20.30;49.80
58865;DHT22;45702;52.982;6.658;2023-05-19T13:35:04;20.30;49.00
58865;DHT22;45702;52.982;6.658;2023-05-19T13:37:30;20.30;49.40
58865;DHT22;45702;52.982;6.658;2023-05-19T13:39:55;20.20;49.70
58865;DHT22;45702;52.982;6.658;2023-05-19T13:42:24;20.30;50.20
58865;DHT22;45702;52.982;6.658;2023-05-19T13:44:55;20.40;50.90
58865;DHT22;45702;52.982;6.658;2023-05-19T13:47:24;20.60;50.20
58865;DHT22;45702;52.982;6.658;2023-05-19T13:49:51;20.80;49.50
58865;DHT22;45702;52.982;6.658;2023-05-19T13:52:17;20.80;49.50
58865;DHT22;45702;52.982;6.658;2023-05-19T13:54:43;20.70;49.40
58865;DHT22;45702;52.982;6.658;2023-05-19T13:57:09;20.70;49.00
58865;DHT22;45702;52.982;6.658;2023-05-19T13:59:34;20.50;48.70
58865;DHT22;45702;52.982;6.658;2023-05-19T14:02:01;20.40;50.00
58865;DHT22;45702;52.982;6.658;2023-05-19T14:04:30;20.40;49.90
58865;DHT22;45702;52.982;6.658;2023-05-19T14:06:56;20.50;50.60
58865;DHT22;45702;52.982;6.658;2023-05-19T14:09:22;20.50;50.30
58865;DHT22;45702;52.982;6.658;2023-05-19T14:11:48;20.60;50.30
58865;DHT22;45702;52.982;6.658;2023-05-19T14:14:14;20.70;51.80
58865;DHT22;45702;52.982;6.658;2023-05-19T14:16:40;20.80;51.50
58865;DHT22;45702;52.982;6.658;2023-05-19T14:19:06;20.80;50.50
58865;DHT22;45702;52.982;6.658;2023-05-19T14:21:32;20.70;49.40
58865;DHT22;45702;52.982;6.658;2023-05-19T14:23:58;20.70;49.00
58865;DHT22;45702;52.982;6.658;2023-05-19T14:26:24;20.70;49.30
58865;DHT22;45702;52.982;6.658;2023-05-19T14:28:50;20.70;48.60
58865;DHT22;45702;52.982;6.658;2023-05-19T14:31:16;20.80;48.40
58865;DHT22;45702;52.982;6.658;2023-05-19T14:33:42;20.80;48.50
58865;DHT22;45702;52.982;6.658;2023-05-19T14:36:08;20.70;48.50
58865;DHT22;45702;52.982;6.658;2023-05-19T14:38:34;20.70;49.10
58865;DHT22;45702;52.982;6.658;2023-05-19T14:41:00;20.70;48.80
58865;DHT22;45702;52.982;6.658;2023-05-19T14:43:26;20.70;48.70
58865;DHT22;45702;52.982;6.658;2023-05-19T14:45:51;20.80;48.30
58865;DHT22;45702;52.982;6.658;2023-05-19T14:48:17;20.80;48.10
58865;DHT22;45702;52.982;6.658;2023-05-19T14:50:43;20.70;47.60
58865;DHT22;45702;52.982;6.658;2023-05-19T14:53:09;20.70;47.80
58865;DHT22;45702;52.982;6.658;2023-05-19T14:55:35;20.50;47.80
58865;DHT22;45702;52.982;6.658;2023-05-19T14:58:01;20.50;48.60
58865;DHT22;45702;52.982;6.658;2023-05-19T15:00:27;20.40;48.70
58865;DHT22;45702;52.982;6.658;2023-05-19T15:02:53;20.50;48.70
58865;DHT22;45702;52.982;6.658;2023-05-19T15:05:19;20.50;48.60
58865;DHT22;45702;52.982;6.658;2023-05-19T15:07:45;20.60;48.90
58865;DHT22;45702;52.982;6.658;2023-05-19T15:10:11;20.50;47.70
58865;DHT22;45702;52.982;6.658;2023-05-19T15:12:36;20.50;47.70
58865;DHT22;45702;52.982;6.658;2023-05-19T15:15:02;20.40;48.10
58865;DHT22;45702;52.982;6.658;2023-05-19T15:17:30;20.50;50.00
58865;DHT22;45702;52.982;6.658;2023-05-19T15:19:55;20.80;49.90
58865;DHT22;45702;52.982;6.658;2023-05-19T15:22:21;21.10;48.90
58865;DHT22;45702;52.982;6.658;2023-05-19T15:24:47;21.20;48.10
58865;DHT22;45702;52.982;6.658;2023-05-19T15:27:12;21.20;48.20
58865;DHT22;45702;52.982;6.658;2023-05-19T15:29:38;21.20;47.90
58865;DHT22;45702;52.982;6.658;2023-05-19T15:32:04;21.00;46.80
58865;DHT22;45702;52.982;6.658;2023-05-19T15:34:30;20.80;46.80
58865;DHT22;45702;52.982;6.658;2023-05-19T15:36:56;20.60;46.80
58865;DHT22;45702;52.982;6.658;2023-05-19T15:39:29;20.60;47.10
58865;DHT22;45702;52.982;6.658;2023-05-19T15:41:54;20.70;47.30
58865;DHT22;45702;52.982;6.658;2023-05-19T15:44:20;21.00;47.30
58865;DHT22;45702;52.982;6.658;2023-05-19T15:46:46;21.40;47.30
58865;DHT22;45702;52.982;6.658;2023-05-19T15:49:11;21.80;46.90
58865;DHT22;45702;52.982;6.658;2023-05-19T15:51:37;22.20;45.30
58865;DHT22;45702;52.982;6.658;2023-05-19T15:54:03;22.60;45.50
58865;DHT22;45702;52.982;6.658;2023-05-19T15:56:29;22.90;44.80
58865;DHT22;45702;52.982;6.658;2023-05-19T15:58:54;23.10;43.50
58865;DHT22;45702;52.982;6.658;2023-05-19T16:01:20;23.40;42.60
58865;DHT22;45702;52.982;6.658;2023-05-19T16:03:46;23.50;42.90